createdAt,value
2022-11-28T00:01:21.532Z,3.35
2022-11-28T00:04:10.007Z,3.42
2022-11-28T00:06:59.227Z,3.49
2022-11-28T00:09:47.006Z,3.24
2022-11-28T00:12:35.747Z,3.47
2022-11-28T00:15:23.448Z,3.40
2022-11-28T00:18:11.629Z,3.31
2022-11-28T00:21:05.864Z,3.35
2022-11-28T00:23:54.035Z,3.32
2022-11-28T00:26:42.111Z,3.33
2022-11-28T00:29:30.552Z,3.34
2022-11-28T00:32:18.150Z,3.18
2022-11-28T00:35:06.461Z,3.34
2022-11-28T00:37:54.114Z,3.38
2022-11-28T00:40:42.018Z,3.34
2022-11-28T00:43:30.230Z,3.30
2022-11-28T00:46:19.605Z,3.24
2022-11-28T00:49:07.371Z,3.45
2022-11-28T00:51:57.330Z,3.43
2022-11-28T00:54:47.262Z,3.49
2022-11-28T00:57:35.058Z,3.23
2022-11-28T01:00:22.773Z,3.39
2022-11-28T01:03:10.518Z,3.41
2022-11-28T01:05:58.120Z,3.36
2022-11-28T01:08:45.938Z,3.35
2022-11-28T01:11:34.542Z,3.33
2022-11-28T01:14:26.348Z,3.39
2022-11-28T01:17:13.949Z,3.40
2022-11-28T01:20:01.831Z,3.46
2022-11-28T01:22:49.469Z,3.42
2022-11-28T01:25:37.287Z,3.39
2022-11-28T01:28:25.010Z,3.45
2022-11-28T01:31:17.217Z,3.39
2022-11-28T01:34:04.990Z,3.42
2022-11-28T01:36:52.832Z,3.36
2022-11-28T01:39:40.509Z,3.31
2022-11-28T01:42:28.252Z,3.43
2022-11-28T01:45:35.194Z,3.45
2022-11-28T01:48:29.588Z,3.40
2022-11-28T01:51:17.367Z,3.40
2022-11-28T01:54:05.389Z,3.47
2022-11-28T01:57:01.948Z,3.35
2022-11-28T01:59:56.022Z,3.46
2022-11-28T02:02:49.365Z,3.44
2022-11-28T02:05:37.458Z,3.41
2022-11-28T02:08:25.771Z,3.47
2022-11-28T02:11:31.889Z,3.46
2022-11-28T02:14:44.718Z,3.46
2022-11-28T02:17:38.037Z,3.43
2022-11-28T02:20:56.752Z,3.37
2022-11-28T02:24:08.902Z,3.42
2022-11-28T02:27:15.185Z,3.37
2022-11-28T02:30:12.183Z,3.41
2022-11-28T02:33:22.436Z,3.24
2022-11-28T02:36:16.309Z,3.34
2022-11-28T02:39:22.817Z,3.28
2022-11-28T02:42:30.502Z,3.28
2022-11-28T02:45:59.478Z,3.33
2022-11-28T02:48:51.974Z,3.30
2022-11-28T02:51:53.456Z,3.25
2022-11-28T02:54:43.561Z,3.33
2022-11-28T02:57:39.642Z,3.36
2022-11-28T03:00:32.241Z,3.33
2022-11-28T03:03:37.265Z,3.39
2022-11-28T03:06:33.413Z,3.39
2022-11-28T03:09:58.491Z,3.40
2022-11-28T03:12:55.045Z,3.40
2022-11-28T03:16:07.283Z,3.47
2022-11-28T03:19:01.189Z,3.31
2022-11-28T03:22:05.699Z,3.25
2022-11-28T03:25:15.593Z,3.25
2022-11-28T03:28:43.551Z,3.18
2022-11-28T03:31:39.285Z,3.25
2022-11-28T03:34:34.569Z,3.28
2022-11-28T03:37:32.496Z,3.23
2022-11-28T03:40:30.669Z,3.21
2022-11-28T03:43:28.255Z,3.28
2022-11-28T03:46:19.226Z,3.33
2022-11-28T03:49:09.785Z,3.22
2022-11-28T03:52:05.194Z,3.20
2022-11-28T03:55:06.307Z,3.24
2022-11-28T03:58:25.594Z,3.13
2022-11-28T04:01:48.212Z,3.34
2022-11-28T04:04:59.688Z,3.31
2022-11-28T04:08:02.675Z,3.38
2022-11-28T04:10:56.999Z,3.34
2022-11-28T04:13:58.419Z,3.24
2022-11-28T04:16:54.570Z,3.32
2022-11-28T04:19:46.896Z,3.17
2022-11-28T04:22:38.866Z,3.24
2022-11-28T04:25:29.024Z,2.94
2022-11-28T04:28:22.582Z,3.27
2022-11-28T04:31:10.743Z,3.23
2022-11-28T04:34:03.050Z,3.27
2022-11-28T04:36:57.465Z,3.26
2022-11-28T04:39:48.750Z,3.21
2022-11-28T04:42:41.737Z,3.13
2022-11-28T04:45:39.557Z,3.19
2022-11-28T04:48:33.984Z,3.28
2022-11-28T04:51:36.327Z,3.20
2022-11-28T04:54:32.976Z,3.25
2022-11-28T04:57:45.449Z,3.23
2022-11-28T05:00:38.754Z,3.04
2022-11-28T05:03:31.133Z,3.24
2022-11-28T05:06:27.940Z,3.15
2022-11-28T05:09:15.644Z,3.15
2022-11-28T05:12:04.172Z,3.26
2022-11-28T05:14:52.722Z,3.35
2022-11-28T05:17:42.440Z,3.39
2022-11-28T05:20:30.427Z,3.16
2022-11-28T05:23:21.102Z,3.36
2022-11-28T05:26:10.723Z,3.36
2022-11-28T05:28:59.028Z,3.20
2022-11-28T05:31:46.729Z,3.30
2022-11-28T05:34:34.507Z,3.29
2022-11-28T05:37:22.218Z,3.11
2022-11-28T05:40:10.178Z,3.34
2022-11-28T05:42:57.809Z,3.34
2022-11-28T05:45:46.229Z,3.25
2022-11-28T05:48:33.793Z,3.06
2022-11-28T05:51:21.488Z,3.26
2022-11-28T05:54:09.179Z,3.26
2022-11-28T05:56:57.059Z,3.25
2022-11-28T05:59:45.148Z,3.16
2022-11-28T06:02:36.387Z,3.08
2022-11-28T06:05:41.454Z,3.13
2022-11-28T06:08:30.448Z,3.30
2022-11-28T06:11:20.091Z,3.32
2022-11-28T06:14:07.897Z,3.09
2022-11-28T06:16:55.509Z,3.40
2022-11-28T06:19:43.420Z,3.39
2022-11-28T06:22:31.141Z,3.36
2022-11-28T06:25:19.080Z,3.37
2022-11-28T06:28:06.725Z,3.43
2022-11-28T06:30:54.430Z,3.22
2022-11-28T06:33:42.759Z,3.39
2022-11-28T06:36:31.405Z,3.48
2022-11-28T06:39:19.215Z,3.53
2022-11-28T06:42:06.904Z,3.84
2022-11-28T06:44:54.519Z,4.05
2022-11-28T06:47:42.264Z,4.09
2022-11-28T06:50:30.145Z,4.15
2022-11-28T06:53:18.148Z,4.19
2022-11-28T06:56:08.055Z,4.02
2022-11-28T06:58:57.938Z,4.16
2022-11-28T07:01:45.667Z,4.20
2022-11-28T07:04:33.890Z,4.21
2022-11-28T07:07:21.581Z,4.27
2022-11-28T07:10:09.730Z,4.23
2022-11-28T07:13:03.771Z,4.35
2022-11-28T07:15:53.129Z,4.40
2022-11-28T07:18:40.807Z,4.33
2022-11-28T07:21:29.324Z,4.20
2022-11-28T07:24:19.846Z,4.23
2022-11-28T07:27:07.592Z,4.15
2022-11-28T07:29:55.571Z,4.42
2022-11-28T07:32:43.257Z,4.51
2022-11-28T07:35:34.002Z,4.40
2022-11-28T07:38:21.693Z,4.46
2022-11-28T07:41:13.065Z,4.43
2022-11-28T07:44:03.078Z,4.51
2022-11-28T07:46:50.754Z,4.50
2022-11-28T07:49:41.837Z,4.52
2022-11-28T07:52:29.735Z,4.52
2022-11-28T07:55:17.594Z,4.37
2022-11-28T07:58:05.833Z,4.26
2022-11-28T08:00:54.157Z,4.53
2022-11-28T08:03:42.115Z,4.61
2022-11-28T08:06:31.414Z,4.67
2022-11-28T08:09:22.976Z,4.76
2022-11-28T08:12:10.721Z,4.65
2022-11-28T08:14:58.372Z,4.72
2022-11-28T08:17:46.168Z,4.84
2022-11-28T08:20:33.862Z,4.72
2022-11-28T08:23:21.615Z,4.70
2022-11-28T08:26:11.159Z,4.81
2022-11-28T08:29:00.590Z,4.63
2022-11-28T08:31:48.342Z,4.72
2022-11-28T08:34:36.241Z,4.76
2022-11-28T08:37:23.892Z,4.61
2022-11-28T08:40:11.999Z,4.90
2022-11-28T08:42:59.667Z,4.73
2022-11-28T08:45:48.741Z,4.84
2022-11-28T08:48:37.253Z,4.83
2022-11-28T08:51:26.036Z,4.83
2022-11-28T08:54:13.593Z,4.79
2022-11-28T08:57:02.328Z,4.92
2022-11-28T08:59:50.030Z,4.81
2022-11-28T09:02:37.753Z,5.05
2022-11-28T09:05:25.494Z,4.95
2022-11-28T09:08:14.754Z,5.02
2022-11-28T09:11:02.430Z,4.85
2022-11-28T09:13:50.599Z,4.78
2022-11-28T09:16:39.909Z,4.94
2022-11-28T09:19:27.803Z,5.05
2022-11-28T09:22:15.438Z,5.07
2022-11-28T09:25:03.232Z,5.12
2022-11-28T09:27:50.892Z,5.11
2022-11-28T09:30:38.721Z,5.10
2022-11-28T09:33:26.439Z,5.44
2022-11-28T09:36:17.164Z,5.44
2022-11-28T09:39:04.763Z,5.62
2022-11-28T09:42:07.390Z,5.67
2022-11-28T09:45:03.316Z,5.86
2022-11-28T09:47:57.977Z,5.82
2022-11-28T09:50:47.221Z,5.91
2022-11-28T09:54:02.465Z,6.03
2022-11-28T09:56:50.809Z,6.15
2022-11-28T09:59:38.709Z,5.76
2022-11-28T10:02:56.300Z,5.67
2022-11-28T10:06:05.180Z,5.52
2022-11-28T10:09:07.948Z,5.65
2022-11-28T10:12:08.323Z,5.80
2022-11-28T10:15:13.190Z,5.82
2022-11-28T10:18:34.528Z,5.70
2022-11-28T10:21:37.266Z,5.53
2022-11-28T10:24:48.716Z,5.54
2022-11-28T10:27:36.577Z,5.69
2022-11-28T10:30:27.007Z,5.87
2022-11-28T10:33:27.660Z,5.92
2022-11-28T10:36:22.709Z,6.08
2022-11-28T10:39:13.790Z,6.27
2022-11-28T10:42:14.174Z,6.15
2022-11-28T10:45:32.709Z,6.08
2022-11-28T10:48:57.822Z,6.30
2022-11-28T10:52:04.599Z,6.24
2022-11-28T10:55:24.277Z,6.13
2022-11-28T10:58:21.186Z,6.22
2022-11-28T11:01:09.884Z,6.20
2022-11-28T11:03:57.573Z,6.26
2022-11-28T11:07:19.084Z,6.45
2022-11-28T11:10:21.402Z,6.54
2022-11-28T11:13:19.987Z,6.56
2022-11-28T11:16:11.621Z,6.36
2022-11-28T11:18:59.549Z,6.18
2022-11-28T11:22:01.043Z,6.14
2022-11-28T11:25:12.745Z,6.20
2022-11-28T11:28:04.494Z,6.17
2022-11-28T11:31:00.598Z,5.95
2022-11-28T11:33:51.575Z,6.03
2022-11-28T11:36:39.399Z,6.16
2022-11-28T11:39:26.997Z,5.90
2022-11-28T11:42:23.825Z,6.13
2022-11-28T11:45:34.380Z,5.96
2022-11-28T11:48:35.716Z,6.15
2022-11-28T11:51:27.718Z,6.21
2022-11-28T11:54:19.813Z,6.19
2022-11-28T11:57:32.145Z,6.17
2022-11-28T12:00:29.209Z,6.46
2022-11-28T12:03:41.354Z,6.38
2022-11-28T12:06:44.225Z,6.25
2022-11-28T12:09:31.572Z,6.10
2022-11-28T12:12:24.002Z,5.98
2022-11-28T12:15:37.471Z,5.95
2022-11-28T12:19:18.117Z,6.05
2022-11-28T12:22:39.988Z,6.16
2022-11-28T12:25:35.370Z,6.31
2022-11-28T12:29:00.361Z,6.10
2022-11-28T12:32:16.760Z,5.91
2022-11-28T12:35:30.174Z,6.03
2022-11-28T12:38:31.625Z,5.77
2022-11-28T12:41:31.961Z,5.86
2022-11-28T12:44:49.334Z,5.74
2022-11-28T12:47:46.625Z,5.81
2022-11-28T12:50:40.497Z,5.80
2022-11-28T12:53:49.002Z,5.82
2022-11-28T12:57:09.534Z,5.65
2022-11-28T13:00:18.578Z,5.67
2022-11-28T13:03:26.282Z,5.55
2022-11-28T13:06:16.871Z,5.36
2022-11-28T13:09:29.287Z,5.69
2022-11-28T13:12:48.669Z,5.57
2022-11-28T13:16:02.665Z,5.60
2022-11-28T13:19:05.278Z,5.57
2022-11-28T13:22:05.771Z,5.49
2022-11-28T13:25:21.112Z,5.40
2022-11-28T13:28:24.577Z,5.40
2022-11-28T13:31:30.172Z,5.53
2022-11-28T13:34:19.819Z,5.28
2022-11-28T13:40:52.205Z,5.38
2022-11-28T13:43:55.658Z,5.39
2022-11-28T13:46:46.265Z,5.42
2022-11-28T13:49:33.949Z,5.32
2022-11-28T13:52:29.579Z,5.32
2022-11-28T13:55:47.127Z,5.28
2022-11-28T13:58:41.881Z,5.29
2022-11-28T14:01:51.683Z,5.26
2022-11-28T14:04:44.709Z,5.24
2022-11-28T14:07:34.134Z,5.04
2022-11-28T14:11:08.730Z,5.29
2022-11-28T14:14:49.970Z,5.18
2022-11-28T14:17:55.889Z,5.12
2022-11-28T14:20:50.958Z,5.09
2022-11-28T14:23:59.506Z,5.12
2022-11-28T14:26:47.561Z,5.10
2022-11-28T14:29:40.380Z,5.01
2022-11-28T14:32:34.792Z,5.01
2022-11-28T14:35:55.112Z,4.93
2022-11-28T14:38:45.335Z,5.02
2022-11-28T14:42:02.925Z,4.88
2022-11-28T14:45:04.970Z,5.00
2022-11-28T14:48:23.423Z,4.97
2022-11-28T14:51:11.253Z,4.86
2022-11-28T14:53:59.191Z,4.68
2022-11-28T14:56:47.333Z,4.71
2022-11-28T14:59:38.701Z,4.70
2022-11-28T15:02:38.021Z,4.75
2022-11-28T15:05:40.331Z,4.69
2022-11-28T15:08:53.891Z,4.69
2022-11-28T15:12:05.207Z,4.76
2022-11-28T15:14:58.349Z,4.54
2022-11-28T15:17:49.544Z,4.65
2022-11-28T15:20:44.753Z,4.63
2022-11-28T15:23:35.563Z,4.55
2022-11-28T15:26:30.438Z,4.50
2022-11-28T15:29:25.027Z,4.46
2022-11-28T15:32:14.896Z,4.32
2022-11-28T15:35:09.383Z,4.24
2022-11-28T15:38:02.663Z,4.35
2022-11-28T15:40:53.029Z,4.25
2022-11-28T15:43:45.773Z,4.16
2022-11-28T15:46:38.302Z,4.22
2022-11-28T15:49:38.810Z,4.19
2022-11-28T15:52:26.684Z,4.03
2022-11-28T15:55:16.514Z,4.23
2022-11-28T15:58:23.701Z,4.18
2022-11-28T16:01:25.224Z,4.21
2022-11-28T16:04:18.731Z,4.21
2022-11-28T16:07:07.053Z,4.04
2022-11-28T16:09:59.760Z,4.18
2022-11-28T16:12:47.983Z,4.17
2022-11-28T16:15:36.697Z,4.24
2022-11-28T16:18:27.283Z,4.12
2022-11-28T16:21:15.358Z,4.13
2022-11-28T16:24:04.461Z,4.04
2022-11-28T16:27:02.346Z,4.06
2022-11-28T16:29:50.186Z,4.01
2022-11-28T16:32:41.057Z,3.98
2022-11-28T16:35:40.870Z,4.07
2022-11-28T16:38:29.820Z,3.95
2022-11-28T16:41:22.601Z,4.05
2022-11-28T16:44:15.903Z,3.97
2022-11-28T16:47:03.791Z,3.93
2022-11-28T16:50:22.003Z,3.97
2022-11-28T16:53:41.572Z,3.85
2022-11-28T16:56:44.765Z,3.90
2022-11-28T16:59:32.437Z,3.71
2022-11-28T17:02:27.183Z,3.89
2022-11-28T17:05:14.975Z,3.85
2022-11-28T17:08:02.892Z,3.59
2022-11-28T17:10:50.668Z,3.75
2022-11-28T17:13:38.534Z,3.77
2022-11-28T17:16:27.641Z,3.56
2022-11-28T17:19:15.495Z,3.80
2022-11-28T17:22:03.711Z,3.74
2022-11-28T17:24:55.756Z,3.77
2022-11-28T17:27:44.003Z,3.67
2022-11-28T17:30:34.156Z,3.80
2022-11-28T17:33:24.570Z,3.65
2022-11-28T17:36:12.926Z,3.66
2022-11-28T17:39:05.046Z,3.63
2022-11-28T17:41:56.404Z,3.73
2022-11-28T17:44:44.169Z,3.74
2022-11-28T17:47:32.084Z,3.82
2022-11-28T17:50:22.573Z,3.53
2022-11-28T17:53:16.574Z,3.80
2022-11-28T17:56:04.577Z,3.73
2022-11-28T17:58:52.335Z,3.76
2022-11-28T18:01:41.310Z,3.62
2022-11-28T18:04:30.195Z,3.70
2022-11-28T18:07:36.642Z,3.68
2022-11-28T18:10:27.241Z,3.74
2022-11-28T18:13:16.893Z,3.61
2022-11-28T18:16:07.696Z,3.63
2022-11-28T18:18:55.530Z,3.72
2022-11-28T18:21:44.903Z,3.67
2022-11-28T18:24:33.717Z,3.67
2022-11-28T18:27:21.845Z,3.59
2022-11-28T18:30:10.067Z,3.71
2022-11-28T18:33:00.862Z,3.64
2022-11-28T18:35:48.469Z,3.53
2022-11-28T18:38:36.409Z,3.51
2022-11-28T18:41:25.130Z,3.63
2022-11-28T18:44:13.701Z,3.63
2022-11-28T18:47:01.285Z,3.50
2022-11-28T18:49:48.932Z,3.66
2022-11-28T18:52:36.971Z,3.62
2022-11-28T18:55:24.784Z,3.53
2022-11-28T18:58:12.568Z,3.66
2022-11-28T19:01:00.551Z,3.56
2022-11-28T19:03:53.150Z,3.58
2022-11-28T19:06:43.174Z,3.61
2022-11-28T19:09:31.174Z,3.54
2022-11-28T19:12:20.723Z,3.64
2022-11-28T19:15:12.007Z,3.61
2022-11-28T19:17:59.752Z,3.74
2022-11-28T19:20:48.267Z,3.46
2022-11-28T19:23:36.197Z,3.63
2022-11-28T19:26:26.613Z,3.61
2022-11-28T19:29:14.866Z,3.60
2022-11-28T19:32:03.422Z,3.58
2022-11-28T19:34:53.791Z,3.56
2022-11-28T19:37:42.348Z,3.57
2022-11-28T19:40:30.070Z,3.29
2022-11-28T19:43:18.028Z,3.47
2022-11-28T19:46:06.408Z,3.48
2022-11-28T19:48:54.688Z,3.41
2022-11-28T19:51:47.431Z,3.37
2022-11-28T19:54:53.322Z,3.30
2022-11-28T19:57:41.364Z,3.45
2022-11-28T20:00:29.042Z,3.41
2022-11-28T20:03:17.413Z,3.49
2022-11-28T20:06:30.443Z,3.55
2022-11-28T20:09:18.717Z,3.31
2022-11-28T20:12:07.822Z,3.58
2022-11-28T20:14:56.642Z,3.53
2022-11-28T20:17:45.168Z,3.50
2022-11-28T20:20:34.249Z,3.34
2022-11-28T20:23:21.988Z,3.27
2022-11-28T20:26:10.982Z,3.50
2022-11-28T20:28:58.714Z,3.57
2022-11-28T20:31:47.827Z,3.54
2022-11-28T20:34:38.489Z,3.49
2022-11-28T20:37:26.141Z,3.40
2022-11-28T20:40:14.301Z,3.44
2022-11-28T20:43:02.075Z,3.36
2022-11-28T20:45:49.883Z,3.42
2022-11-28T20:48:38.575Z,3.46
2022-11-28T20:51:28.170Z,3.37
2022-11-28T20:54:16.273Z,3.39
2022-11-28T21:00:12.356Z,3.14
2022-11-28T21:02:59.959Z,3.21
2022-11-28T21:05:47.944Z,3.28
2022-11-28T21:08:36.544Z,3.30
2022-11-28T21:11:55.221Z,3.33
2022-11-28T21:14:33.433Z,3.37
2022-11-28T21:17:21.634Z,3.41
2022-11-28T21:20:09.815Z,3.26
2022-11-28T21:22:57.561Z,3.36
2022-11-28T21:25:45.339Z,3.21
2022-11-28T21:28:34.706Z,3.28
2022-11-28T21:31:23.685Z,3.05
2022-11-28T21:34:14.702Z,3.02
2022-11-28T21:37:02.590Z,3.12
2022-11-28T21:39:50.303Z,3.21
2022-11-28T21:42:56.459Z,3.14
2022-11-28T21:45:44.147Z,3.05
2022-11-28T21:48:33.933Z,2.96
2022-11-28T21:51:24.969Z,3.10
2022-11-28T21:54:13.235Z,2.98
2022-11-28T21:57:00.916Z,3.03
2022-11-28T21:59:48.597Z,3.12
2022-11-28T22:02:36.370Z,3.11
2022-11-28T22:05:24.044Z,3.05
2022-11-28T22:08:12.046Z,3.12
2022-11-28T22:11:03.806Z,3.11
2022-11-28T22:13:53.062Z,2.97
2022-11-28T22:16:41.776Z,2.90
2022-11-28T22:19:29.691Z,2.82
2022-11-28T22:22:18.306Z,2.95
2022-11-28T22:25:06.539Z,2.97
2022-11-28T22:27:54.206Z,2.84
2022-11-28T22:30:41.909Z,2.95
2022-11-28T22:33:29.566Z,2.96
2022-11-28T22:36:20.268Z,3.07
2022-11-28T22:39:10.535Z,2.93
2022-11-28T22:41:58.568Z,2.91
2022-11-28T22:44:47.541Z,2.94
2022-11-28T22:47:35.314Z,2.84
2022-11-28T22:50:23.092Z,2.95
2022-11-28T22:53:10.925Z,3.01
2022-11-28T22:56:06.173Z,2.84
2022-11-28T22:58:54.042Z,2.96
2022-11-28T23:01:43.795Z,2.84
2022-11-28T23:04:32.145Z,2.92
2022-11-28T23:07:19.881Z,2.85
2022-11-28T23:10:08.849Z,2.94
2022-11-28T23:12:56.523Z,2.92
2022-11-28T23:15:48.445Z,2.81
2022-11-28T23:18:39.261Z,2.81
2022-11-28T23:21:30.625Z,2.85
2022-11-28T23:24:22.218Z,2.67
2022-11-28T23:27:10.628Z,2.83
2022-11-28T23:29:59.900Z,2.79
2022-11-28T23:32:47.884Z,2.75
2022-11-28T23:35:35.604Z,2.77
2022-11-28T23:38:23.458Z,2.82
2022-11-28T23:41:11.855Z,2.76
2022-11-28T23:44:00.503Z,2.67
2022-11-28T23:46:48.831Z,2.74
2022-11-28T23:49:36.477Z,2.75
2022-11-28T23:52:24.087Z,2.75
2022-11-28T23:55:11.793Z,2.56
2022-11-28T23:57:59.364Z,2.53
